createdAt,value
2022-08-05T00:01:27.816Z,17.50
2022-08-05T00:04:14.131Z,17.51
2022-08-05T00:06:59.331Z,17.51
2022-08-05T00:09:44.077Z,17.49
2022-08-05T00:12:29.033Z,17.45
2022-08-05T00:15:55.273Z,17.48
2022-08-05T00:18:22.701Z,17.48
2022-08-05T00:21:08.399Z,17.45
2022-08-05T00:24:10.100Z,17.47
2022-08-05T00:26:56.378Z,17.42
2022-08-05T00:29:41.227Z,17.41
2022-08-05T00:32:26.152Z,17.41
2022-08-05T00:35:11.234Z,17.39
2022-08-05T00:37:56.252Z,17.39
2022-08-05T00:40:53.303Z,17.39
2022-08-05T00:43:47.018Z,17.36
2022-08-05T00:46:42.657Z,17.37
2022-08-05T00:49:28.226Z,17.36
2022-08-05T00:52:18.703Z,17.35
2022-08-05T00:55:13.365Z,17.34
2022-08-05T00:58:00.184Z,17.29
2022-08-05T01:00:46.741Z,17.27
2022-08-05T01:03:34.057Z,17.25
2022-08-05T01:06:19.137Z,17.24
2022-08-05T01:09:05.602Z,17.19
2022-08-05T01:11:55.521Z,17.19
2022-08-05T01:14:48.164Z,17.21
2022-08-05T01:17:53.672Z,17.22
2022-08-05T01:20:59.677Z,17.22
2022-08-05T01:24:02.262Z,17.24
2022-08-05T01:27:50.614Z,17.21
2022-08-05T01:30:50.668Z,17.15
2022-08-05T01:33:53.665Z,17.11
2022-08-05T01:36:47.017Z,17.07
2022-08-05T01:39:47.543Z,17.03
2022-08-05T01:42:36.071Z,17.04
2022-08-05T01:45:23.715Z,17.04
2022-08-05T01:48:11.858Z,17.07
2022-08-05T01:51:00.154Z,17.07
2022-08-05T01:53:59.107Z,17.06
2022-08-05T01:58:09.365Z,17.07
2022-08-05T01:59:59.316Z,17.08
2022-08-05T02:03:16.354Z,17.06
2022-08-05T02:06:37.619Z,17.02
2022-08-05T02:09:20.651Z,16.98
2022-08-05T02:12:12.012Z,16.97
2022-08-05T02:15:03.180Z,16.93
2022-08-05T02:18:31.228Z,16.93
2022-08-05T02:21:04.326Z,16.96
2022-08-05T02:23:54.839Z,16.93
2022-08-05T02:26:54.694Z,16.93
2022-08-05T02:29:58.921Z,16.90
2022-08-05T02:32:51.911Z,16.86
2022-08-05T02:35:49.894Z,16.85
2022-08-05T02:38:45.085Z,16.83
2022-08-05T02:41:57.678Z,16.80
2022-08-05T02:44:46.257Z,16.79
2022-08-05T02:47:58.332Z,16.80
2022-08-05T02:50:46.035Z,16.77
2022-08-05T02:53:38.991Z,16.77
2022-08-05T02:56:26.727Z,16.78
2022-08-05T02:59:12.113Z,16.78
2022-08-05T03:02:00.170Z,16.79
2022-08-05T03:04:46.561Z,16.82
2022-08-05T03:08:06.583Z,16.89
2022-08-05T03:11:53.271Z,16.99
2022-08-05T03:14:03.399Z,17.13
2022-08-05T03:16:49.343Z,17.29
2022-08-05T03:19:38.330Z,17.45
2022-08-05T03:22:32.469Z,17.61
2022-08-05T03:25:32.659Z,17.77
2022-08-05T03:28:19.875Z,17.95
2022-08-05T03:31:05.413Z,18.12
2022-08-05T03:33:53.190Z,18.27
2022-08-05T03:36:37.964Z,18.47
2022-08-05T03:39:26.997Z,18.66
2022-08-05T03:42:12.216Z,18.83
2022-08-05T03:44:57.179Z,19.01
2022-08-05T03:47:42.267Z,19.17
2022-08-05T03:50:59.274Z,19.28
2022-08-05T03:55:52.394Z,19.50
2022-08-05T03:57:42.370Z,19.67
2022-08-05T04:00:30.916Z,19.81
2022-08-05T04:03:28.174Z,19.93
2022-08-05T04:06:14.970Z,20.08
2022-08-05T04:09:01.871Z,20.23
2022-08-05T04:11:47.329Z,20.36
2022-08-05T04:14:36.083Z,20.52
2022-08-05T04:17:21.473Z,20.70
2022-08-05T04:20:06.662Z,20.91
2022-08-05T04:22:56.070Z,21.12
2022-08-05T04:25:58.000Z,21.28
2022-08-05T04:28:51.371Z,21.43
2022-08-05T04:31:38.521Z,21.64
2022-08-05T04:34:32.512Z,21.80
2022-08-05T04:37:19.425Z,22.03
2022-08-05T04:40:05.165Z,22.23
2022-08-05T04:42:50.269Z,22.46
2022-08-05T04:45:48.155Z,22.58
2022-08-05T04:48:33.773Z,22.68
2022-08-05T04:51:19.419Z,22.83
2022-08-05T04:54:07.922Z,22.98
2022-08-05T04:56:58.935Z,23.17
2022-08-05T04:59:44.857Z,23.31
2022-08-05T05:02:37.254Z,23.39
2022-08-05T05:05:28.301Z,23.38
2022-08-05T05:08:26.475Z,23.17
2022-08-05T05:11:15.280Z,23.35
2022-08-05T05:14:02.759Z,23.46
2022-08-05T05:16:47.447Z,23.39
2022-08-05T05:19:36.466Z,23.47
2022-08-05T05:22:26.019Z,23.54
2022-08-05T05:25:17.086Z,23.57
2022-08-05T05:28:02.772Z,23.64
2022-08-05T05:30:49.821Z,23.62
2022-08-05T05:33:58.699Z,23.73
2022-08-05T05:36:39.486Z,23.89
2022-08-05T05:39:24.564Z,23.95
2022-08-05T05:42:16.757Z,23.91
2022-08-05T05:45:06.890Z,23.89
2022-08-05T05:48:06.660Z,24.06
2022-08-05T05:50:52.505Z,24.13
2022-08-05T05:53:45.975Z,24.34
2022-08-05T05:56:39.506Z,24.44
2022-08-05T05:59:24.898Z,24.56
2022-08-05T06:02:13.880Z,24.54
2022-08-05T06:04:59.559Z,24.58
2022-08-05T06:07:57.600Z,24.68
2022-08-05T06:10:52.367Z,24.75
2022-08-05T06:13:40.915Z,24.73
2022-08-05T06:16:39.243Z,24.80
2022-08-05T06:19:34.215Z,24.98
2022-08-05T06:22:26.042Z,25.16
2022-08-05T06:25:59.302Z,25.20
2022-08-05T06:28:21.103Z,25.11
2022-08-05T06:31:11.249Z,25.09
2022-08-05T06:34:06.826Z,25.18
2022-08-05T06:36:57.004Z,25.22
2022-08-05T06:39:43.349Z,25.33
2022-08-05T06:42:29.267Z,25.45
2022-08-05T06:45:21.165Z,25.49
2022-08-05T06:48:46.945Z,25.76
2022-08-05T06:51:23.914Z,25.97
2022-08-05T06:54:18.127Z,25.88
2022-08-05T06:57:56.724Z,26.09
2022-08-05T07:00:09.999Z,26.16
2022-08-05T07:02:55.481Z,26.39
2022-08-05T07:05:41.006Z,26.41
2022-08-05T07:08:28.211Z,26.26
2022-08-05T07:11:15.355Z,26.33
2022-08-05T07:14:20.420Z,26.57
2022-08-05T07:18:00.417Z,26.83
2022-08-05T07:20:37.179Z,27.13
2022-08-05T07:23:26.489Z,26.99
2022-08-05T07:26:17.294Z,27.26
2022-08-05T07:29:08.513Z,27.61
2022-08-05T07:31:55.399Z,27.98
2022-08-05T07:34:42.326Z,28.03
2022-08-05T07:37:28.990Z,28.30
2022-08-05T07:40:31.731Z,28.21
2022-08-05T07:43:20.885Z,28.37
2022-08-05T07:46:06.237Z,28.06
2022-08-05T07:49:09.446Z,28.09
2022-08-05T07:51:55.185Z,28.25
2022-08-05T07:54:41.225Z,28.64
2022-08-05T07:57:42.708Z,28.99
2022-08-05T08:00:37.603Z,28.97
2022-08-05T08:03:22.613Z,29.09
2022-08-05T08:06:07.601Z,29.26
2022-08-05T08:08:55.256Z,29.36
2022-08-05T08:11:47.782Z,29.54
2022-08-05T08:14:40.842Z,29.79
2022-08-05T08:17:26.214Z,29.82
2022-08-05T08:20:43.360Z,29.92
2022-08-05T08:24:02.264Z,30.09
2022-08-05T08:26:26.875Z,30.31
2022-08-05T08:29:45.522Z,30.12
2022-08-05T08:32:28.165Z,30.27
2022-08-05T08:35:13.708Z,30.28
2022-08-05T08:37:58.624Z,30.48
2022-08-05T08:40:51.499Z,30.79
2022-08-05T08:45:18.096Z,31.22
2022-08-05T08:46:44.095Z,31.39
2022-08-05T08:50:23.139Z,31.55
2022-08-05T08:52:41.665Z,31.50
2022-08-05T08:56:02.650Z,31.50
2022-08-05T08:58:44.403Z,30.73
2022-08-05T09:01:33.690Z,30.22
2022-08-05T09:04:18.631Z,30.38
2022-08-05T09:07:19.393Z,31.39
2022-08-05T09:10:13.160Z,32.15
2022-08-05T09:13:05.218Z,32.85
2022-08-05T09:15:51.295Z,33.20
2022-08-05T09:18:40.051Z,33.52
2022-08-05T09:22:23.367Z,33.24
2022-08-05T09:24:37.128Z,33.30
2022-08-05T09:28:04.024Z,33.40
2022-08-05T09:30:43.545Z,33.95
2022-08-05T09:33:35.366Z,34.50
2022-08-05T09:36:21.088Z,34.49
2022-08-05T09:39:18.144Z,34.80
2022-08-05T09:42:07.875Z,35.02
2022-08-05T09:44:56.166Z,34.51
2022-08-05T09:47:55.699Z,33.81
2022-08-05T09:50:44.704Z,33.64
2022-08-05T09:53:54.516Z,33.15
2022-08-05T09:56:51.761Z,32.87
2022-08-05T09:59:37.402Z,33.41
2022-08-05T10:02:34.002Z,34.40
2022-08-05T10:05:21.291Z,35.20
2022-08-05T10:08:36.660Z,36.33
2022-08-05T10:11:16.639Z,36.18
2022-08-05T10:14:24.221Z,34.75
2022-08-05T10:17:39.747Z,33.81
2022-08-05T10:20:20.080Z,32.28
2022-08-05T10:23:08.925Z,31.40
2022-08-05T10:26:14.885Z,30.90
2022-08-05T10:29:00.457Z,30.05
2022-08-05T10:32:55.633Z,29.85
2022-08-05T10:34:50.754Z,30.74
2022-08-05T10:37:40.461Z,32.50
2022-08-05T10:40:44.936Z,34.36
2022-08-05T10:43:36.343Z,33.87
2022-08-05T10:46:23.744Z,32.43
2022-08-05T10:49:10.442Z,31.72
2022-08-05T10:52:02.484Z,33.06
2022-08-05T10:55:09.470Z,34.27
2022-08-05T10:58:11.693Z,33.84
2022-08-05T11:01:04.343Z,33.20
2022-08-05T11:04:22.306Z,33.90
2022-08-05T11:07:14.892Z,33.95
2022-08-05T11:10:04.035Z,33.96
2022-08-05T11:12:56.499Z,35.40
2022-08-05T11:15:59.201Z,36.24
2022-08-05T11:18:47.063Z,35.26
2022-08-05T11:21:32.170Z,33.27
2022-08-05T11:24:33.731Z,31.93
2022-08-05T11:27:45.833Z,31.16
2022-08-05T11:30:55.326Z,32.77
2022-08-05T11:33:48.121Z,34.36
2022-08-05T11:36:46.480Z,35.72
2022-08-05T11:39:49.507Z,36.34
2022-08-05T11:42:45.534Z,36.76
2022-08-05T11:46:15.633Z,36.81
2022-08-05T11:48:36.143Z,36.88
2022-08-05T11:51:44.424Z,35.91
2022-08-05T11:54:34.502Z,35.86
2022-08-05T11:57:24.859Z,36.37
2022-08-05T12:00:30.721Z,36.53
2022-08-05T12:03:29.328Z,34.89
2022-08-05T12:06:22.856Z,33.61
2022-08-05T12:09:07.826Z,34.31
2022-08-05T12:12:07.609Z,35.85
2022-08-05T12:14:55.864Z,37.39
2022-08-05T12:18:03.978Z,38.55
2022-08-05T12:20:47.781Z,38.93
2022-08-05T12:23:32.853Z,39.29
2022-08-05T12:26:17.844Z,38.42
2022-08-05T12:29:09.433Z,35.52
2022-08-05T12:32:01.721Z,33.67
2022-08-05T12:34:47.122Z,34.71
2022-08-05T12:37:35.123Z,36.20
2022-08-05T12:40:29.643Z,37.05
2022-08-05T12:43:20.614Z,35.82
2022-08-05T12:46:06.226Z,34.31
2022-08-05T12:49:13.608Z,35.04
2022-08-05T12:52:12.789Z,36.24
2022-08-05T12:55:26.302Z,37.27
2022-08-05T12:58:38.748Z,37.04
2022-08-05T13:02:03.367Z,37.55
2022-08-05T13:04:52.525Z,38.31
2022-08-05T13:07:59.310Z,38.71
2022-08-05T13:10:50.316Z,38.70
2022-08-05T13:14:04.929Z,38.62
2022-08-05T13:16:50.084Z,37.91
2022-08-05T13:19:51.018Z,37.85
2022-08-05T13:22:46.062Z,37.95
2022-08-05T13:25:52.267Z,38.09
2022-08-05T13:28:40.921Z,36.97
2022-08-05T13:32:02.837Z,37.41
2022-08-05T13:34:33.973Z,38.88
2022-08-05T13:37:34.545Z,39.11
2022-08-05T13:40:36.941Z,39.85
2022-08-05T13:43:44.016Z,40.60
2022-08-05T13:46:37.962Z,40.39
2022-08-05T13:49:36.557Z,40.45
2022-08-05T13:52:29.070Z,40.51
2022-08-05T13:55:14.388Z,40.52
2022-08-05T13:58:30.176Z,41.17
2022-08-05T14:01:16.433Z,41.52
2022-08-05T14:04:19.782Z,41.89
2022-08-05T14:07:24.932Z,41.59
2022-08-05T14:10:19.036Z,41.51
2022-08-05T14:13:13.203Z,39.98
2022-08-05T14:16:07.597Z,39.36
2022-08-05T14:18:55.998Z,39.56
2022-08-05T14:22:09.558Z,40.23
2022-08-05T14:24:46.711Z,40.47
2022-08-05T14:27:32.616Z,40.44
2022-08-05T14:30:20.407Z,40.71
2022-08-05T14:33:09.014Z,40.71
2022-08-05T14:36:02.172Z,41.00
2022-08-05T14:38:46.922Z,41.47
2022-08-05T14:41:32.570Z,41.75
2022-08-05T14:44:20.563Z,41.72
2022-08-05T14:47:07.000Z,41.86
2022-08-05T14:49:59.569Z,41.68
2022-08-05T14:52:57.773Z,40.97
2022-08-05T14:55:44.125Z,39.57
2022-08-05T14:58:37.116Z,39.30
2022-08-05T15:01:47.201Z,39.65
2022-08-05T15:04:29.127Z,39.08
2022-08-05T15:08:10.836Z,38.44
2022-08-05T15:10:19.315Z,38.15
2022-08-05T15:13:13.853Z,38.25
2022-08-05T15:15:59.311Z,38.41
2022-08-05T15:18:43.956Z,38.35
2022-08-05T15:21:32.422Z,38.48
2022-08-05T15:24:20.476Z,38.13
2022-08-05T15:27:09.099Z,37.90
2022-08-05T15:29:56.829Z,38.00
2022-08-05T15:32:41.962Z,37.82
2022-08-05T15:35:27.534Z,37.96
2022-08-05T15:38:35.329Z,38.31
2022-08-05T15:41:24.477Z,38.70
2022-08-05T15:44:09.884Z,38.77
2022-08-05T15:46:55.662Z,38.40
2022-08-05T15:49:56.778Z,38.16
2022-08-05T15:52:52.963Z,37.58
2022-08-05T15:56:01.832Z,36.97
2022-08-05T15:58:48.587Z,36.75
2022-08-05T16:01:39.739Z,36.26
2022-08-05T16:04:36.852Z,36.05
2022-08-05T16:07:24.240Z,36.02
2022-08-05T16:10:14.262Z,35.97
2022-08-05T16:12:59.932Z,35.97
2022-08-05T16:15:44.805Z,35.91
2022-08-05T16:18:32.538Z,35.95
2022-08-05T16:21:17.290Z,35.87
2022-08-05T16:24:03.737Z,35.50
2022-08-05T16:26:51.264Z,35.32
2022-08-05T16:29:37.974Z,35.25
2022-08-05T16:32:28.332Z,35.03
2022-08-05T16:35:14.081Z,34.79
2022-08-05T16:38:16.455Z,34.43
2022-08-05T16:42:12.373Z,34.24
2022-08-05T16:44:14.034Z,34.03
2022-08-05T16:46:59.335Z,33.90
2022-08-05T16:49:44.178Z,33.66
2022-08-05T16:52:32.625Z,33.46
2022-08-05T16:55:18.470Z,33.27
2022-08-05T16:58:08.706Z,32.84
2022-08-05T17:00:53.743Z,32.33
2022-08-05T17:03:40.274Z,31.92
2022-08-05T17:06:25.667Z,31.60
2022-08-05T17:09:10.553Z,31.13
2022-08-05T17:11:59.732Z,30.60
2022-08-05T17:14:44.898Z,30.14
2022-08-05T17:17:42.674Z,29.34
2022-08-05T17:20:28.464Z,28.12
2022-08-05T17:24:03.726Z,27.13
2022-08-05T17:26:18.544Z,26.33
2022-08-05T17:29:07.483Z,25.88
2022-08-05T17:31:59.031Z,25.50
2022-08-05T17:34:49.246Z,25.09
2022-08-05T17:37:41.450Z,24.76
2022-08-05T17:40:30.356Z,24.43
2022-08-05T17:43:16.311Z,24.20
2022-08-05T17:46:02.994Z,23.98
2022-08-05T17:48:49.377Z,23.78
2022-08-05T17:51:40.584Z,23.59
2022-08-05T17:54:25.816Z,23.43
2022-08-05T17:57:12.183Z,23.29
2022-08-05T18:00:05.086Z,23.12
2022-08-05T18:02:50.699Z,22.97
2022-08-05T18:05:36.243Z,22.81
2022-08-05T18:08:21.261Z,22.69
2022-08-05T18:11:06.380Z,22.58
2022-08-05T18:13:52.018Z,22.47
2022-08-05T18:16:47.038Z,22.36
2022-08-05T18:19:36.825Z,22.24
2022-08-05T18:22:36.493Z,22.14
2022-08-05T18:25:34.257Z,22.03
2022-08-05T18:28:21.823Z,21.94
2022-08-05T18:31:07.439Z,21.87
2022-08-05T18:33:54.339Z,21.83
2022-08-05T18:36:43.642Z,21.80
2022-08-05T18:40:30.993Z,21.78
2022-08-05T18:42:33.349Z,21.73
2022-08-05T18:45:18.512Z,21.69
2022-08-05T18:48:05.367Z,21.65
2022-08-05T18:52:06.204Z,21.59
2022-08-05T18:54:20.300Z,21.51
2022-08-05T18:57:06.159Z,21.47
2022-08-05T19:00:02.156Z,21.47
2022-08-05T19:02:51.130Z,21.49
2022-08-05T19:06:12.266Z,21.49
2022-08-05T19:08:41.948Z,21.49
2022-08-05T19:11:28.417Z,21.43
2022-08-05T19:14:44.923Z,21.42
2022-08-05T19:17:33.770Z,21.37
2022-08-05T19:20:32.561Z,21.36
2022-08-05T19:24:03.726Z,21.29
2022-08-05T19:26:23.453Z,21.24
2022-08-05T19:29:10.601Z,21.19
2022-08-05T19:31:56.109Z,21.18
2022-08-05T19:34:54.319Z,21.15
2022-08-05T19:38:04.729Z,21.14
2022-08-05T19:40:46.716Z,21.14
2022-08-05T19:44:05.912Z,21.15
2022-08-05T19:46:39.441Z,21.09
2022-08-05T19:49:24.439Z,21.02
2022-08-05T19:52:30.611Z,20.96
2022-08-05T19:56:15.133Z,20.91
2022-08-05T19:58:29.309Z,20.83
2022-08-05T20:01:14.954Z,20.78
2022-08-05T20:04:01.273Z,20.72
2022-08-05T20:06:48.183Z,20.66
2022-08-05T20:09:55.062Z,20.62
2022-08-05T20:12:38.295Z,20.57
2022-08-05T20:15:50.804Z,20.51
2022-08-05T20:18:36.718Z,20.43
2022-08-05T20:21:22.321Z,20.38
2022-08-05T20:24:07.423Z,20.32
2022-08-05T20:26:56.374Z,20.27
2022-08-05T20:29:41.729Z,20.20
2022-08-05T20:32:37.498Z,20.19
2022-08-05T20:35:31.451Z,20.18
2022-08-05T20:38:22.603Z,20.15
2022-08-05T20:41:11.860Z,20.11
2022-08-05T20:44:17.195Z,20.08
2022-08-05T20:47:07.403Z,20.00
2022-08-05T20:49:52.507Z,19.96
2022-08-05T20:52:38.599Z,19.92
2022-08-05T20:55:56.310Z,19.89
2022-08-05T20:58:31.439Z,19.85
2022-08-05T21:01:16.786Z,19.83
2022-08-05T21:04:01.623Z,19.82
2022-08-05T21:06:46.687Z,19.77
2022-08-05T21:09:31.467Z,19.74
2022-08-05T21:12:19.286Z,19.71
2022-08-05T21:15:04.800Z,19.69
2022-08-05T21:17:52.309Z,19.67
2022-08-05T21:20:37.548Z,19.61
2022-08-05T21:23:24.824Z,19.61
2022-08-05T21:26:14.334Z,19.57
2022-08-05T21:29:03.871Z,19.50
2022-08-05T21:31:50.282Z,19.48
2022-08-05T21:34:36.268Z,19.50
2022-08-05T21:37:21.036Z,19.46
2022-08-05T21:40:06.661Z,19.46
2022-08-05T21:42:59.218Z,19.46
2022-08-05T21:45:56.500Z,19.43
2022-08-05T21:48:42.550Z,19.37
2022-08-05T21:52:21.457Z,19.38
2022-08-05T21:54:33.058Z,19.33
2022-08-05T21:57:34.038Z,19.32
2022-08-05T22:00:19.424Z,19.31
2022-08-05T22:03:04.262Z,19.28
2022-08-05T22:05:49.414Z,19.23
2022-08-05T22:08:34.378Z,19.21
2022-08-05T22:11:34.407Z,19.19
2022-08-05T22:14:35.707Z,19.17
2022-08-05T22:17:23.512Z,19.13
2022-08-05T22:20:14.690Z,19.08
2022-08-05T22:23:21.299Z,19.03
2022-08-05T22:26:24.864Z,18.99
2022-08-05T22:29:09.664Z,18.95
2022-08-05T22:31:55.371Z,18.97
2022-08-05T22:34:47.884Z,18.94
2022-08-05T22:37:58.515Z,18.89
2022-08-05T22:40:38.406Z,18.83
2022-08-05T22:43:36.839Z,18.78
2022-08-05T22:46:23.252Z,18.75
2022-08-05T22:50:17.673Z,18.69
2022-08-05T22:52:30.549Z,18.62
2022-08-05T22:58:28.477Z,18.60
2022-08-05T23:01:13.795Z,18.57
2022-08-05T23:03:59.731Z,18.59
2022-08-05T23:06:44.808Z,18.59
2022-08-05T23:09:57.758Z,18.59
2022-08-05T23:12:37.591Z,18.55
2022-08-05T23:15:29.344Z,18.50
2022-08-05T23:18:16.121Z,18.45
2022-08-05T23:21:01.287Z,18.43
2022-08-05T23:23:48.187Z,18.41
2022-08-05T23:26:33.235Z,18.35
2022-08-05T23:29:18.188Z,18.30
2022-08-05T23:32:05.028Z,18.25
2022-08-05T23:34:50.884Z,18.22
2022-08-05T23:37:36.539Z,18.23
2022-08-05T23:40:27.268Z,18.22
2022-08-05T23:43:24.950Z,18.21
2022-08-05T23:46:21.010Z,18.16
2022-08-05T23:49:16.217Z,18.10
2022-08-05T23:52:20.664Z,18.03
2022-08-05T23:55:09.072Z,17.99
2022-08-05T23:57:53.906Z,18.00
